Hovedside
METAR-TAF:

METAR-TAF

Lufthavner :

Kristiansund lufthavn. Kvernberget

Kristiansund, Norge

breddegrad: 63-07N, lengdegrad: 007-50E, høyde over havet: 6 m

Gjeldene værobservasjon

Denne rapporten ble laget for 17 minutter siden, klokken 01:20 UTC
Vind 2 kt fra Nord-nordvest
Temperatur 3°C
Luftfuktighet 87%
Trykk 1021 hPa
Sikt 10 km eller mer

METAR: ENKB 110120Z AUTO 33002KT 9999 FEW025/// 03/01 Q1021 RMK WIND 745FT 35009KT

Tid: 02:37 (01:37 UTC)

Varsel

Denne rapporten ble laget for 8 timer og 37 minutter siden, klokken 17:00 UTC
Varsel gyldig fra 10. klokken 18 UTC til 10. klokken 22 UTC
Vind 10 kt fra Nord
Sikt 10 km eller mer
Få skyer i en høyde av 2500 ft, Tårnskyer (cumulus).
Brutte skyer i en høyde av 5000 ft

TAF: ENKB 101700Z 1018/1022 35010KT 9999 FEW025TCU BKN050

Værobservasjoner og værvarsel for over 4000 flyplasser (METAR- og TAF-rapporter).

Tilgjengelige stasjoner er representert av de røde og gule prikkene på kartet.

Hold musepekeren over prikken for å se navnet på stasjonen.

Klikk så for å se værobservasjoner og -varsler.

For å forandre kartet kan du klikke på den grønne knappen med svart kryss for å zoome inn, på den grønne knappen med strek for å zoome ut, eller på de grønne pilene for å se tilstøtende kart.


METAR-TAF: